NCAR-RAP Real-Time Weather Data

Output produced by METARs form (07 March 2021  04:46 UTC)
found at http://weather.rap.ucar.edu/surface/
 
KMSO 070353Z 34007KT 10SM BKN055 BKN120 04/M02 A2995 RMK AO2 SLP162 T00391022
KMSO 070253Z 34006KT 10SM OVC049 03/M01 A2993 RMK AO2 SLP156 T00331006 53023
KMSO 070153Z 31011KT 10SM BKN047 BKN055 05/M01 A2991 RMK AO2 SLP148 T00501011
KMSO 070053Z 32006KT 10SM BKN060 BKN075 06/M01 A2988 RMK AO2 SLP138 T00611011
KMSO 062353Z 31013KT 10SM BKN065 OVC090 07/M01 A2986 RMK AO2 SLP125 T00671006 10089 20039 53024
KMSO 062253Z 31013KT 10SM OVC050 07/M01 A2983 RMK AO2 SLP118 T00721006
KMSO 062153Z 33010KT 10SM BKN060 OVC085 08/M01 A2981 RMK AO2 SLP103 T00831006
KMSO 062053Z 31013KT 10SM BKN065 08/M01 A2978 RMK AO2 SLP098 T00831006 53009